createdAt,value
2023-05-19T00:02:47.668Z,100.00
2023-05-19T00:05:34.660Z,100.00
2023-05-19T00:08:21.312Z,100.00
2023-05-19T00:11:07.805Z,100.00
2023-05-19T00:13:54.620Z,100.00
2023-05-19T00:16:42.217Z,100.00
2023-05-19T00:19:32.174Z,100.00
2023-05-19T00:22:18.521Z,100.00
2023-05-19T00:25:06.240Z,100.00
2023-05-19T00:27:52.290Z,100.00
2023-05-19T00:30:38.568Z,100.00
2023-05-19T00:33:25.002Z,100.00
2023-05-19T00:36:12.312Z,100.00
2023-05-19T00:38:58.134Z,100.00
2023-05-19T00:41:44.514Z,100.00
2023-05-19T00:44:31.056Z,100.00
2023-05-19T00:47:16.941Z,100.00
2023-05-19T00:50:03.179Z,100.00
2023-05-19T00:52:50.528Z,100.00
2023-05-19T00:55:38.362Z,100.00
2023-05-19T00:58:28.990Z,100.00
2023-05-19T01:01:17.143Z,100.00
2023-05-19T01:04:04.533Z,100.00
2023-05-19T01:06:54.757Z,100.00
2023-05-19T01:09:42.276Z,100.00
2023-05-19T01:12:28.556Z,100.00
2023-05-19T01:15:15.411Z,100.00
2023-05-19T01:18:07.314Z,100.00
2023-05-19T01:21:03.649Z,100.00
2023-05-19T01:23:54.151Z,100.00
2023-05-19T01:27:01.548Z,100.00
2023-05-19T01:30:13.616Z,100.00
2023-05-19T01:33:01.858Z,100.00
2023-05-19T01:35:48.738Z,100.00
2023-05-19T01:38:35.501Z,100.00
2023-05-19T01:41:23.224Z,100.00
2023-05-19T01:44:11.136Z,100.00
2023-05-19T01:46:58.815Z,100.00
2023-05-19T01:49:45.043Z,100.00
2023-05-19T01:52:31.077Z,100.00
2023-05-19T01:55:17.219Z,100.00
2023-05-19T01:58:11.237Z,100.00
2023-05-19T02:01:02.493Z,100.00
2023-05-19T02:03:59.033Z,100.00
2023-05-19T02:06:49.868Z,100.00
2023-05-19T02:09:40.495Z,100.00
2023-05-19T02:12:29.593Z,100.00
2023-05-19T02:15:17.569Z,100.00
2023-05-19T02:18:04.515Z,100.00
2023-05-19T02:20:52.216Z,100.00
2023-05-19T02:23:38.342Z,100.00
2023-05-19T02:26:24.247Z,100.00
2023-05-19T02:29:10.886Z,100.00
2023-05-19T02:31:56.714Z,100.00
2023-05-19T02:34:45.530Z,100.00
2023-05-19T02:37:33.153Z,100.00
2023-05-19T02:40:19.155Z,100.00
2023-05-19T02:43:05.360Z,100.00
2023-05-19T02:45:51.831Z,100.00
2023-05-19T02:48:38.880Z,100.00
2023-05-19T02:51:24.971Z,100.00
2023-05-19T02:54:12.582Z,100.00
2023-05-19T02:56:58.734Z,100.00
2023-05-19T02:59:44.987Z,100.00
2023-05-19T03:02:33.270Z,100.00
2023-05-19T03:05:20.021Z,100.00
2023-05-19T03:08:06.404Z,100.00
2023-05-19T03:10:53.976Z,100.00
2023-05-19T03:13:40.175Z,100.00
2023-05-19T03:16:27.964Z,100.00
2023-05-19T03:19:14.104Z,100.00
2023-05-19T03:22:00.702Z,100.00
2023-05-19T03:24:47.390Z,100.00
2023-05-19T03:27:34.948Z,100.00
2023-05-19T03:30:21.231Z,100.00
2023-05-19T03:33:25.464Z,100.00
2023-05-19T03:36:12.540Z,100.00
2023-05-19T03:38:59.305Z,100.00
2023-05-19T03:41:45.734Z,100.00
2023-05-19T03:44:33.488Z,100.00
2023-05-19T03:47:20.219Z,100.00
2023-05-19T03:50:22.978Z,100.00
2023-05-19T03:53:16.036Z,100.00
2023-05-19T03:56:02.495Z,100.00
2023-05-19T03:58:49.694Z,100.00
2023-05-19T04:01:37.363Z,100.00
2023-05-19T04:04:23.554Z,100.00
2023-05-19T04:07:09.967Z,100.00
2023-05-19T04:09:55.909Z,100.00
2023-05-19T04:12:41.951Z,100.00
2023-05-19T04:15:28.496Z,100.00
2023-05-19T04:18:16.221Z,100.00
2023-05-19T04:21:02.589Z,100.00
2023-05-19T04:23:49.364Z,100.00
2023-05-19T04:26:37.983Z,100.00
2023-05-19T04:29:24.324Z,100.00
2023-05-19T04:32:10.834Z,100.00
2023-05-19T04:34:59.854Z,100.00
2023-05-19T04:37:48.388Z,100.00
2023-05-19T04:40:37.249Z,100.00
2023-05-19T04:43:23.629Z,100.00
2023-05-19T04:46:13.716Z,100.00
2023-05-19T04:49:02.149Z,100.00
2023-05-19T04:51:54.892Z,100.00
2023-05-19T04:54:44.465Z,100.00
2023-05-19T04:57:32.712Z,100.00
2023-05-19T05:00:20.432Z,100.00
2023-05-19T05:03:16.373Z,100.00
2023-05-19T05:06:02.583Z,100.00
2023-05-19T05:08:50.862Z,100.00
2023-05-19T05:11:38.197Z,100.00
2023-05-19T05:14:25.238Z,100.00
2023-05-19T05:17:12.983Z,100.00
2023-05-19T05:19:59.565Z,100.00
2023-05-19T05:22:46.549Z,100.00
2023-05-19T05:25:35.522Z,100.00
2023-05-19T05:28:21.737Z,100.00
2023-05-19T05:31:07.583Z,100.00
2023-05-19T05:33:54.225Z,100.00
2023-05-19T05:36:45.953Z,100.00
2023-05-19T05:39:32.696Z,100.00
2023-05-19T05:42:20.968Z,100.00
2023-05-19T05:45:09.112Z,100.00
2023-05-19T05:47:55.985Z,100.00
2023-05-19T05:50:44.226Z,100.00
2023-05-19T05:53:32.019Z,100.00
2023-05-19T05:56:20.708Z,100.00
2023-05-19T05:59:11.874Z,100.00
2023-05-19T06:01:58.520Z,100.00
2023-05-19T06:04:45.237Z,100.00
2023-05-19T06:07:31.368Z,100.00
2023-05-19T06:10:17.788Z,100.00
2023-05-19T06:13:04.231Z,100.00
2023-05-19T06:15:52.170Z,100.00
2023-05-19T06:18:46.342Z,100.00
2023-05-19T06:21:32.797Z,100.00
2023-05-19T06:24:19.238Z,100.00
2023-05-19T06:27:05.633Z,100.00
2023-05-19T06:29:52.280Z,100.00
2023-05-19T06:32:40.933Z,100.00
2023-05-19T06:35:27.301Z,100.00
2023-05-19T06:38:13.166Z,100.00
2023-05-19T06:40:59.743Z,100.00
2023-05-19T06:43:45.985Z,100.00
2023-05-19T06:46:34.987Z,100.00
2023-05-19T06:49:22.801Z,100.00
2023-05-19T06:52:09.262Z,100.00
2023-05-19T06:54:55.683Z,100.00
2023-05-19T06:57:42.182Z,100.00
2023-05-19T07:00:28.369Z,100.00
2023-05-19T07:03:14.836Z,100.00
2023-05-19T07:06:02.693Z,100.00
2023-05-19T07:08:49.129Z,100.00
2023-05-19T07:11:36.788Z,100.00
2023-05-19T07:14:25.057Z,100.00
2023-05-19T07:17:12.645Z,100.00
2023-05-19T07:20:04.677Z,100.00
2023-05-19T07:22:52.279Z,100.00
2023-05-19T07:25:38.092Z,100.00
2023-05-19T07:28:24.041Z,100.00
2023-05-19T07:31:10.641Z,100.00
2023-05-19T07:33:58.000Z,100.00
2023-05-19T07:36:44.150Z,100.00
2023-05-19T07:39:32.272Z,100.00
2023-05-19T07:42:18.519Z,100.00
2023-05-19T07:45:04.971Z,100.00
2023-05-19T07:47:51.140Z,100.00
2023-05-19T07:50:37.821Z,100.00
2023-05-19T07:53:24.176Z,100.00
2023-05-19T07:56:11.347Z,100.00
2023-05-19T07:58:57.277Z,100.00
2023-05-19T08:01:43.205Z,100.00
2023-05-19T08:04:29.184Z,100.00
2023-05-19T08:07:15.612Z,100.00
2023-05-19T08:10:01.772Z,100.00
2023-05-19T08:12:49.236Z,100.00
2023-05-19T08:15:35.179Z,100.00
2023-05-19T08:18:21.260Z,100.00
2023-05-19T08:21:07.417Z,100.00
2023-05-19T08:23:53.463Z,96.38
2023-05-19T08:26:39.685Z,97.93
2023-05-19T08:29:27.272Z,93.46
2023-05-19T08:32:13.570Z,98.86
2023-05-19T08:34:59.939Z,94.47
2023-05-19T08:37:45.907Z,82.38
2023-05-19T08:40:32.854Z,81.06
2023-05-19T08:43:19.213Z,80.85
2023-05-19T08:46:08.138Z,85.04
2023-05-19T08:48:57.276Z,71.18
2023-05-19T08:51:51.572Z,81.64
2023-05-19T08:54:44.794Z,79.65
2023-05-19T08:57:30.685Z,82.42
2023-05-19T09:00:17.464Z,75.73
2023-05-19T09:03:17.657Z,74.86
2023-05-19T09:06:09.343Z,77.99
2023-05-19T09:08:55.325Z,71.17
2023-05-19T09:11:41.721Z,68.17
2023-05-19T09:14:28.055Z,69.58
2023-05-19T09:17:14.217Z,78.02
2023-05-19T09:20:04.304Z,65.24
2023-05-19T09:22:50.653Z,70.57
2023-05-19T09:25:36.535Z,62.36
2023-05-19T09:28:26.653Z,61.02
2023-05-19T09:31:12.680Z,59.56
2023-05-19T09:33:58.831Z,60.83
2023-05-19T09:36:49.360Z,57.80
2023-05-19T09:39:35.408Z,58.43
2023-05-19T09:42:26.616Z,59.64
2023-05-19T09:45:12.726Z,66.83
2023-05-19T09:48:05.630Z,63.92
2023-05-19T09:50:53.057Z,63.65
2023-05-19T09:53:40.627Z,61.47
2023-05-19T09:56:27.403Z,64.21
2023-05-19T09:59:15.333Z,62.79
2023-05-19T10:02:02.320Z,72.28
2023-05-19T10:04:49.355Z,60.67
2023-05-19T10:07:36.173Z,60.28
2023-05-19T10:10:23.885Z,61.43
2023-05-19T10:13:10.638Z,62.32
2023-05-19T10:15:59.453Z,62.24
2023-05-19T10:18:46.186Z,61.53
2023-05-19T10:21:33.098Z,58.94
2023-05-19T10:24:19.659Z,58.66
2023-05-19T10:27:11.753Z,59.47
2023-05-19T10:30:00.709Z,57.01
2023-05-19T10:32:49.330Z,58.08
2023-05-19T10:36:10.849Z,60.89
2023-05-19T10:39:01.230Z,54.98
2023-05-19T10:41:54.851Z,57.32
2023-05-19T10:44:50.717Z,57.29
2023-05-19T10:47:36.972Z,54.16
2023-05-19T10:50:23.406Z,51.15
2023-05-19T10:53:15.248Z,51.76
2023-05-19T10:56:04.054Z,55.07
2023-05-19T10:58:52.050Z,52.34
2023-05-19T11:01:41.641Z,54.57
2023-05-19T11:04:40.572Z,49.60
2023-05-19T11:07:26.545Z,50.13
2023-05-19T11:10:13.013Z,51.01
2023-05-19T11:12:59.097Z,52.65
2023-05-19T11:15:46.499Z,52.44
2023-05-19T11:18:34.679Z,55.30
2023-05-19T11:21:21.283Z,58.18
2023-05-19T11:24:09.034Z,56.57
2023-05-19T11:26:55.650Z,57.45
2023-05-19T11:29:42.523Z,59.69
2023-05-19T11:32:30.751Z,58.18
2023-05-19T11:35:21.329Z,58.62
2023-05-19T11:38:08.044Z,60.31
2023-05-19T11:40:54.959Z,59.11
2023-05-19T11:43:40.709Z,59.16
2023-05-19T11:46:27.556Z,55.60
2023-05-19T11:49:13.658Z,56.06
2023-05-19T11:52:02.754Z,52.33
2023-05-19T11:54:49.472Z,53.05
2023-05-19T11:57:36.240Z,53.78
2023-05-19T12:00:24.922Z,55.50
2023-05-19T12:03:11.510Z,52.70
2023-05-19T12:05:57.781Z,50.97
2023-05-19T12:08:46.062Z,48.49
2023-05-19T12:11:32.657Z,50.00
2023-05-19T12:14:19.005Z,52.15
2023-05-19T12:17:12.083Z,47.70
2023-05-19T12:19:58.213Z,51.97
2023-05-19T12:22:44.385Z,47.65
2023-05-19T12:25:32.744Z,49.26
2023-05-19T12:28:20.501Z,55.13
2023-05-19T12:31:07.042Z,51.08
2023-05-19T12:33:53.098Z,46.89
2023-05-19T12:36:39.622Z,47.40
2023-05-19T12:39:25.897Z,48.09
2023-05-19T12:42:13.941Z,47.63
2023-05-19T12:45:03.094Z,46.59
2023-05-19T12:47:50.181Z,44.95
2023-05-19T12:50:38.249Z,45.26
2023-05-19T12:53:27.459Z,46.85
2023-05-19T12:56:14.728Z,47.96
2023-05-19T12:59:02.823Z,46.15
2023-05-19T13:01:56.371Z,45.59
2023-05-19T13:04:42.722Z,46.32
2023-05-19T13:07:29.067Z,44.20
2023-05-19T13:10:14.937Z,44.76
2023-05-19T13:13:01.416Z,45.31
2023-05-19T13:15:49.526Z,44.29
2023-05-19T13:18:37.589Z,44.14
2023-05-19T13:21:23.755Z,44.93
2023-05-19T13:24:09.660Z,42.88
2023-05-19T13:26:56.155Z,44.45
2023-05-19T13:29:42.106Z,44.96
2023-05-19T13:32:29.241Z,44.08
2023-05-19T13:35:15.794Z,44.20
2023-05-19T13:38:04.202Z,42.52
2023-05-19T13:40:50.394Z,43.98
2023-05-19T13:43:36.263Z,46.02
2023-05-19T13:46:29.406Z,49.87
2023-05-19T13:49:24.752Z,48.98
2023-05-19T13:52:11.536Z,47.81
2023-05-19T13:54:57.814Z,44.98
2023-05-19T13:57:44.334Z,45.94
2023-05-19T14:00:31.514Z,47.99
2023-05-19T14:03:19.762Z,49.03
2023-05-19T14:06:08.061Z,51.34
2023-05-19T14:08:54.064Z,50.94
2023-05-19T14:11:40.470Z,49.16
2023-05-19T14:14:26.314Z,49.83
2023-05-19T14:17:13.152Z,52.21
2023-05-19T14:20:00.941Z,51.04
2023-05-19T14:22:48.492Z,51.27
2023-05-19T14:25:34.662Z,48.66
2023-05-19T14:28:20.770Z,49.93
2023-05-19T14:31:07.119Z,52.93
2023-05-19T14:33:53.034Z,55.42
2023-05-19T14:36:38.963Z,53.57
2023-05-19T14:39:26.420Z,57.78
2023-05-19T14:42:12.325Z,55.38
2023-05-19T14:44:58.223Z,55.16
2023-05-19T14:47:44.638Z,56.42
2023-05-19T14:50:30.889Z,56.08
2023-05-19T14:53:17.239Z,57.09
2023-05-19T14:56:06.420Z,54.19
2023-05-19T14:58:52.592Z,53.65
2023-05-19T15:01:38.549Z,56.57
2023-05-19T15:04:25.123Z,55.47
2023-05-19T15:07:11.566Z,53.42
2023-05-19T15:09:57.379Z,54.14
2023-05-19T15:12:44.681Z,56.01
2023-05-19T15:15:30.826Z,56.58
2023-05-19T15:18:18.562Z,58.45
2023-05-19T15:21:04.925Z,59.68
2023-05-19T15:23:51.091Z,57.52
2023-05-19T15:26:36.930Z,59.35
2023-05-19T15:29:24.245Z,57.76
2023-05-19T15:32:10.570Z,56.59
2023-05-19T15:34:56.655Z,57.75
2023-05-19T15:37:42.584Z,57.40
2023-05-19T15:40:28.487Z,57.81
2023-05-19T15:43:14.333Z,57.49
2023-05-19T15:46:01.738Z,58.00
2023-05-19T15:48:47.820Z,59.33
2023-05-19T15:51:34.065Z,62.06
2023-05-19T15:54:19.917Z,60.66
2023-05-19T15:57:06.371Z,58.73
2023-05-19T15:59:52.242Z,60.06
2023-05-19T16:02:39.799Z,58.51
2023-05-19T16:05:25.842Z,57.91
2023-05-19T16:08:11.822Z,56.76
2023-05-19T16:10:57.843Z,59.06
2023-05-19T16:13:43.660Z,58.93
2023-05-19T16:16:29.822Z,62.42
2023-05-19T16:19:17.475Z,59.66
2023-05-19T16:22:03.539Z,62.56
2023-05-19T16:24:49.581Z,61.87
2023-05-19T16:27:35.428Z,63.58
2023-05-19T16:30:22.683Z,66.16
2023-05-19T16:33:09.408Z,61.14
2023-05-19T16:35:58.586Z,60.65
2023-05-19T16:38:44.861Z,61.32
2023-05-19T16:41:30.698Z,63.19
2023-05-19T16:44:18.233Z,60.85
2023-05-19T16:47:04.401Z,62.62
2023-05-19T16:49:50.241Z,61.57
2023-05-19T16:52:38.143Z,61.85
2023-05-19T16:55:25.307Z,66.92
2023-05-19T16:58:11.567Z,64.86
2023-05-19T17:00:57.762Z,63.57
2023-05-19T17:03:44.075Z,61.58
2023-05-19T17:06:31.081Z,63.31
2023-05-19T17:09:18.257Z,64.30
2023-05-19T17:12:04.900Z,64.28
2023-05-19T17:14:52.339Z,63.61
2023-05-19T17:17:38.461Z,63.41
2023-05-19T17:20:25.255Z,66.23
2023-05-19T17:23:11.420Z,65.10
2023-05-19T17:25:58.728Z,64.81
2023-05-19T17:28:44.807Z,65.34
2023-05-19T17:31:31.615Z,64.74
2023-05-19T17:34:17.571Z,64.97
2023-05-19T17:37:03.414Z,65.04
2023-05-19T17:39:49.522Z,66.82
2023-05-19T17:42:37.654Z,68.23
2023-05-19T17:45:23.457Z,68.41
2023-05-19T17:48:09.534Z,68.15
2023-05-19T17:50:55.564Z,65.08
2023-05-19T17:53:42.364Z,66.50
2023-05-19T17:56:31.415Z,67.44
2023-05-19T17:59:19.644Z,68.83
2023-05-19T18:02:06.098Z,68.82
2023-05-19T18:04:52.684Z,67.69
2023-05-19T18:07:39.996Z,70.39
2023-05-19T18:10:26.919Z,70.43
2023-05-19T18:13:13.931Z,71.42
2023-05-19T18:16:01.274Z,73.75
2023-05-19T18:18:50.273Z,72.08
2023-05-19T18:21:36.554Z,72.95
2023-05-19T18:24:22.513Z,73.46
2023-05-19T18:27:08.457Z,73.77
2023-05-19T18:29:54.299Z,73.35
2023-05-19T18:32:41.590Z,71.22
2023-05-19T18:35:27.662Z,73.21
2023-05-19T18:38:13.655Z,73.06
2023-05-19T18:41:00.691Z,74.11
2023-05-19T18:43:46.848Z,74.26
2023-05-19T18:46:33.694Z,75.73
2023-05-19T18:49:21.375Z,74.12
2023-05-19T18:52:08.101Z,75.47
2023-05-19T18:54:54.301Z,75.71
2023-05-19T18:57:41.760Z,75.54
2023-05-19T19:00:28.490Z,78.79
2023-05-19T19:03:14.587Z,78.39
2023-05-19T19:06:02.262Z,79.21
2023-05-19T19:08:48.237Z,84.75
2023-05-19T19:11:34.325Z,81.33
2023-05-19T19:14:20.337Z,81.89
2023-05-19T19:17:06.867Z,83.59
2023-05-19T19:19:53.463Z,79.98
2023-05-19T19:22:40.994Z,83.29
2023-05-19T19:25:26.890Z,88.92
2023-05-19T19:28:12.879Z,89.14
2023-05-19T19:30:58.697Z,92.64
2023-05-19T19:33:44.921Z,97.14
2023-05-19T19:36:31.823Z,99.92
2023-05-19T19:39:18.915Z,99.82
2023-05-19T19:42:05.864Z,100.00
2023-05-19T19:44:55.682Z,95.79
2023-05-19T19:47:41.975Z,91.29
2023-05-19T19:50:28.428Z,93.40
2023-05-19T19:53:15.528Z,95.40
2023-05-19T19:56:04.298Z,96.56
2023-05-19T19:58:50.321Z,95.65
2023-05-19T20:01:36.174Z,94.17
2023-05-19T20:04:22.786Z,96.17
2023-05-19T20:07:09.461Z,100.00
2023-05-19T20:09:56.159Z,100.00
2023-05-19T20:12:43.517Z,100.00
2023-05-19T20:15:29.802Z,100.00
2023-05-19T20:18:15.781Z,100.00
2023-05-19T20:21:01.923Z,100.00
2023-05-19T20:23:50.257Z,100.00
2023-05-19T20:26:37.118Z,100.00
2023-05-19T20:29:24.606Z,100.00
2023-05-19T20:32:11.200Z,100.00
2023-05-19T20:34:57.189Z,100.00
2023-05-19T20:37:43.242Z,100.00
2023-05-19T20:40:29.509Z,100.00
2023-05-19T20:43:15.483Z,100.00
2023-05-19T20:46:03.821Z,100.00
2023-05-19T20:48:50.012Z,100.00
2023-05-19T20:51:36.363Z,100.00
2023-05-19T20:54:22.627Z,100.00
2023-05-19T20:57:09.378Z,100.00
2023-05-19T20:59:55.625Z,100.00
2023-05-19T21:02:43.065Z,100.00
2023-05-19T21:05:29.420Z,100.00
2023-05-19T21:08:15.557Z,100.00
2023-05-19T21:11:01.837Z,100.00
2023-05-19T21:13:47.758Z,100.00
2023-05-19T21:16:34.152Z,100.00
2023-05-19T21:19:21.971Z,100.00
2023-05-19T21:22:08.390Z,100.00
2023-05-19T21:24:54.216Z,100.00
2023-05-19T21:27:40.657Z,100.00
2023-05-19T21:30:27.147Z,100.00
2023-05-19T21:33:13.067Z,100.00
2023-05-19T21:36:00.463Z,100.00
2023-05-19T21:38:46.564Z,100.00
2023-05-19T21:41:32.815Z,100.00
2023-05-19T21:44:18.827Z,100.00
2023-05-19T21:47:05.000Z,100.00
2023-05-19T21:49:50.922Z,100.00
2023-05-19T21:52:38.548Z,100.00
2023-05-19T21:55:24.686Z,100.00
2023-05-19T21:58:10.737Z,100.00
2023-05-19T22:00:57.028Z,100.00
2023-05-19T22:03:43.658Z,100.00
2023-05-19T22:06:30.222Z,100.00
2023-05-19T22:09:17.978Z,100.00
2023-05-19T22:12:04.482Z,100.00
2023-05-19T22:14:50.664Z,100.00
2023-05-19T22:17:37.029Z,100.00
2023-05-19T22:20:22.933Z,100.00
2023-05-19T22:23:09.022Z,100.00
2023-05-19T22:25:56.269Z,100.00
2023-05-19T22:28:42.467Z,100.00
2023-05-19T22:31:29.236Z,100.00
2023-05-19T22:34:15.399Z,100.00
2023-05-19T22:37:01.832Z,100.00
2023-05-19T22:39:47.983Z,100.00
2023-05-19T22:42:35.231Z,100.00
2023-05-19T22:45:21.693Z,100.00
2023-05-19T22:48:08.156Z,100.00
2023-05-19T22:50:54.617Z,100.00
2023-05-19T22:53:42.365Z,100.00
2023-05-19T22:56:28.608Z,100.00
2023-05-19T22:59:17.565Z,100.00
2023-05-19T23:02:03.747Z,100.00
2023-05-19T23:04:49.631Z,100.00
2023-05-19T23:07:35.544Z,100.00
2023-05-19T23:10:21.843Z,100.00
2023-05-19T23:13:08.155Z,100.00
2023-05-19T23:15:55.575Z,100.00
2023-05-19T23:18:41.758Z,100.00
2023-05-19T23:21:27.785Z,100.00
2023-05-19T23:24:14.037Z,100.00
2023-05-19T23:27:00.872Z,100.00
2023-05-19T23:29:48.770Z,100.00
2023-05-19T23:32:36.194Z,100.00
2023-05-19T23:35:22.722Z,100.00
2023-05-19T23:38:08.966Z,100.00
2023-05-19T23:40:54.932Z,100.00
2023-05-19T23:43:40.853Z,100.00
2023-05-19T23:46:26.816Z,100.00
2023-05-19T23:49:14.626Z,100.00
2023-05-19T23:52:00.888Z,100.00
2023-05-19T23:54:47.140Z,100.00
2023-05-19T23:57:33.376Z,100.00
